Startpagina
METAR-TAF:

METAR-TAF

Vliegvelden :

Flughafen Mönchengladbach

Mönchengladbach, Duitsland

breedte: 51-13-49N, lengte: 006-30-16E, hoogte: 38 m

Actueel weer

Dit bericht is 15 minuten geleden gemaakt, om 09:50 UTC
Wind 6 kt uit het noordnoordwesten, variërend tussen het noordwesten en het noordnoordoosten
Temperatuur 18°C
Vochtigheid 68%
Druk 1025 hPa
Zicht 10 km of meer
Weinig wolken op 1900 ft
Gebroken wolken op 2700 ft

METAR: EDLN 250950Z 34006KT 310V020 9999 FEW019 BKN027 18/12 Q1025

Tijdstip: 12:05 (10:05 UTC)

Verwachting

Dit bericht is 2 uur en het 5 minuten geleden gemaakt, om 08:00 UTC
Verwachting geldig van 25 om 09 UTC tot 25 om 18 UTC
Wind 8 kt uit het noordnoordwesten
Zicht 10 km of meer
Gebroken wolken op 2000 ft

TAF: EDLN 250800Z 2509/2518 34008KT 9999 BKN020

Waarnemingen en weersverwachtingen van meer dan 4000 vliegvelden (METAR en TAF).

De beschikbare stations zijn de gele en rode punten op de kaart.

Ga met uw muis naar het station om de naam te zien.

Klik dan om waarnemingen en weersverwachtingen te zien.

kaart wijzigen: klik op de groene knoppen met een zwart kruis om in te zoomen, op de groene knop met een streepje om uit te zoomen of op de groene pijlen voor aangrenzende kaarten.


METAR-TAF: